sensor_id;sensor_type;location;lat;lon;timestamp;P1;durP1;ratioP1;P2;durP2;ratioP2
54197;SDS011;40105;52.366;17.000;2022-07-26T00:00:18;3.73;;;1.43;;
54197;SDS011;40105;52.366;17.000;2022-07-26T00:02:44;4.90;;;2.08;;
54197;SDS011;40105;52.366;17.000;2022-07-26T00:05:09;3.92;;;1.83;;
54197;SDS011;40105;52.366;17.000;2022-07-26T00:07:35;5.47;;;2.30;;
54197;SDS011;40105;52.366;17.000;2022-07-26T00:10:00;11.00;;;1.90;;
54197;SDS011;40105;52.366;17.000;2022-07-26T00:12:25;6.63;;;2.50;;
54197;SDS011;40105;52.366;17.000;2022-07-26T00:14:51;3.13;;;1.40;;
54197;SDS011;40105;52.366;17.000;2022-07-26T00:17:16;8.52;;;2.13;;
54197;SDS011;40105;52.366;17.000;2022-07-26T00:19:41;6.17;;;1.87;;
54197;SDS011;40105;52.366;17.000;2022-07-26T00:22:07;5.27;;;2.33;;
54197;SDS011;40105;52.366;17.000;2022-07-26T00:24:50;14.00;;;2.42;;
54197;SDS011;40105;52.366;17.000;2022-07-26T00:27:16;9.47;;;2.13;;
54197;SDS011;40105;52.366;17.000;2022-07-26T00:29:41;3.97;;;1.40;;
54197;SDS011;40105;52.366;17.000;2022-07-26T00:32:06;5.53;;;2.10;;
54197;SDS011;40105;52.366;17.000;2022-07-26T00:34:32;4.33;;;2.20;;
54197;SDS011;40105;52.366;17.000;2022-07-26T00:36:57;3.90;;;2.17;;
54197;SDS011;40105;52.366;17.000;2022-07-26T00:39:22;5.27;;;1.97;;
54197;SDS011;40105;52.366;17.000;2022-07-26T00:41:48;4.70;;;1.95;;
54197;SDS011;40105;52.366;17.000;2022-07-26T00:44:13;6.38;;;2.47;;
54197;SDS011;40105;52.366;17.000;2022-07-26T00:46:42;5.93;;;2.17;;
54197;SDS011;40105;52.366;17.000;2022-07-26T00:49:08;8.05;;;2.08;;
54197;SDS011;40105;52.366;17.000;2022-07-26T00:51:33;8.10;;;1.85;;
54197;SDS011;40105;52.366;17.000;2022-07-26T00:53:58;8.67;;;2.03;;
54197;SDS011;40105;52.366;17.000;2022-07-26T00:56:24;4.88;;;2.13;;
54197;SDS011;40105;52.366;17.000;2022-07-26T00:58:49;4.18;;;2.00;;
54197;SDS011;40105;52.366;17.000;2022-07-26T01:01:15;3.30;;;2.10;;
54197;SDS011;40105;52.366;17.000;2022-07-26T01:03:40;6.97;;;1.90;;
54197;SDS011;40105;52.366;17.000;2022-07-26T01:06:05;8.88;;;2.00;;
54197;SDS011;40105;52.366;17.000;2022-07-26T01:08:31;4.57;;;2.20;;
54197;SDS011;40105;52.366;17.000;2022-07-26T01:10:56;5.43;;;2.07;;
54197;SDS011;40105;52.366;17.000;2022-07-26T01:13:21;5.53;;;2.07;;
54197;SDS011;40105;52.366;17.000;2022-07-26T01:15:47;7.03;;;1.70;;
54197;SDS011;40105;52.366;17.000;2022-07-26T01:18:12;4.18;;;1.98;;
54197;SDS011;40105;52.366;17.000;2022-07-26T01:20:38;5.28;;;1.85;;
54197;SDS011;40105;52.366;17.000;2022-07-26T01:23:03;13.20;;;1.83;;
54197;SDS011;40105;52.366;17.000;2022-07-26T01:25:29;7.03;;;2.80;;
54197;SDS011;40105;52.366;17.000;2022-07-26T01:27:55;5.38;;;2.10;;
54197;SDS011;40105;52.366;17.000;2022-07-26T01:30:20;5.97;;;1.90;;
54197;SDS011;40105;52.366;17.000;2022-07-26T01:32:45;6.27;;;2.00;;
54197;SDS011;40105;52.366;17.000;2022-07-26T01:35:10;3.70;;;1.83;;
54197;SDS011;40105;52.366;17.000;2022-07-26T01:37:36;10.90;;;2.60;;
54197;SDS011;40105;52.366;17.000;2022-07-26T01:40:01;3.80;;;1.90;;
54197;SDS011;40105;52.366;17.000;2022-07-26T01:42:26;8.80;;;2.30;;
54197;SDS011;40105;52.366;17.000;2022-07-26T01:44:51;8.67;;;2.30;;
54197;SDS011;40105;52.366;17.000;2022-07-26T01:47:17;11.17;;;2.60;;
54197;SDS011;40105;52.366;17.000;2022-07-26T01:49:42;6.10;;;2.00;;
54197;SDS011;40105;52.366;17.000;2022-07-26T01:52:07;6.63;;;1.57;;
54197;SDS011;40105;52.366;17.000;2022-07-26T01:54:32;8.87;;;1.83;;
54197;SDS011;40105;52.366;17.000;2022-07-26T01:56:57;11.10;;;2.57;;
54197;SDS011;40105;52.366;17.000;2022-07-26T01:59:23;4.27;;;1.90;;
54197;SDS011;40105;52.366;17.000;2022-07-26T02:01:48;5.30;;;2.30;;
54197;SDS011;40105;52.366;17.000;2022-07-26T02:04:13;5.60;;;2.10;;
54197;SDS011;40105;52.366;17.000;2022-07-26T02:06:57;4.50;;;2.08;;
54197;SDS011;40105;52.366;17.000;2022-07-26T02:09:22;4.33;;;2.07;;
54197;SDS011;40105;52.366;17.000;2022-07-26T02:11:47;10.90;;;2.40;;
54197;SDS011;40105;52.366;17.000;2022-07-26T02:14:13;12.05;;;2.80;;
54197;SDS011;40105;52.366;17.000;2022-07-26T02:16:38;11.43;;;4.40;;
54197;SDS011;40105;52.366;17.000;2022-07-26T02:19:03;7.43;;;4.47;;
54197;SDS011;40105;52.366;17.000;2022-07-26T02:21:28;11.03;;;4.90;;
54197;SDS011;40105;52.366;17.000;2022-07-26T02:23:53;11.80;;;7.53;;
54197;SDS011;40105;52.366;17.000;2022-07-26T02:26:19;10.67;;;7.27;;
54197;SDS011;40105;52.366;17.000;2022-07-26T02:28:44;11.43;;;7.30;;
54197;SDS011;40105;52.366;17.000;2022-07-26T02:31:09;12.83;;;7.83;;
54197;SDS011;40105;52.366;17.000;2022-07-26T02:33:34;14.23;;;7.67;;
54197;SDS011;40105;52.366;17.000;2022-07-26T02:35:59;13.23;;;7.53;;
54197;SDS011;40105;52.366;17.000;2022-07-26T02:38:24;15.13;;;7.47;;
54197;SDS011;40105;52.366;17.000;2022-07-26T02:40:50;15.97;;;8.23;;
54197;SDS011;40105;52.366;17.000;2022-07-26T02:43:16;11.77;;;6.82;;
54197;SDS011;40105;52.366;17.000;2022-07-26T02:45:41;12.13;;;7.77;;
54197;SDS011;40105;52.366;17.000;2022-07-26T02:48:06;10.80;;;7.40;;
54197;SDS011;40105;52.366;17.000;2022-07-26T02:50:32;11.10;;;7.43;;
54197;SDS011;40105;52.366;17.000;2022-07-26T02:52:57;14.37;;;7.97;;
54197;SDS011;40105;52.366;17.000;2022-07-26T02:55:23;10.80;;;7.00;;
54197;SDS011;40105;52.366;17.000;2022-07-26T02:57:49;13.25;;;7.70;;
54197;SDS011;40105;52.366;17.000;2022-07-26T03:00:15;14.38;;;7.07;;
54197;SDS011;40105;52.366;17.000;2022-07-26T03:02:40;12.55;;;7.78;;
54197;SDS011;40105;52.366;17.000;2022-07-26T03:05:06;14.27;;;7.80;;
54197;SDS011;40105;52.366;17.000;2022-07-26T03:07:31;17.50;;;8.37;;
54197;SDS011;40105;52.366;17.000;2022-07-26T03:09:56;11.45;;;7.63;;
54197;SDS011;40105;52.366;17.000;2022-07-26T03:12:22;16.70;;;7.82;;
54197;SDS011;40105;52.366;17.000;2022-07-26T03:14:47;12.17;;;8.00;;
54197;SDS011;40105;52.366;17.000;2022-07-26T03:17:12;14.73;;;7.60;;
54197;SDS011;40105;52.366;17.000;2022-07-26T03:19:37;15.73;;;7.37;;
54197;SDS011;40105;52.366;17.000;2022-07-26T03:22:03;13.53;;;7.47;;
54197;SDS011;40105;52.366;17.000;2022-07-26T03:24:28;14.67;;;7.73;;
54197;SDS011;40105;52.366;17.000;2022-07-26T03:26:53;13.20;;;7.60;;
54197;SDS011;40105;52.366;17.000;2022-07-26T03:29:18;12.67;;;7.33;;
54197;SDS011;40105;52.366;17.000;2022-07-26T03:31:43;14.00;;;7.97;;
54197;SDS011;40105;52.366;17.000;2022-07-26T03:34:08;13.23;;;7.63;;
54197;SDS011;40105;52.366;17.000;2022-07-26T03:36:34;11.67;;;7.20;;
54197;SDS011;40105;52.366;17.000;2022-07-26T03:38:59;13.30;;;6.67;;
54197;SDS011;40105;52.366;17.000;2022-07-26T03:41:24;12.40;;;6.90;;
54197;SDS011;40105;52.366;17.000;2022-07-26T03:43:49;15.37;;;8.20;;
54197;SDS011;40105;52.366;17.000;2022-07-26T03:46:14;11.37;;;6.53;;
54197;SDS011;40105;52.366;17.000;2022-07-26T03:48:39;8.73;;;5.83;;
54197;SDS011;40105;52.366;17.000;2022-07-26T03:51:05;13.43;;;6.88;;
54197;SDS011;40105;52.366;17.000;2022-07-26T03:53:30;18.00;;;7.30;;
54197;SDS011;40105;52.366;17.000;2022-07-26T03:55:55;13.57;;;7.00;;
54197;SDS011;40105;52.366;17.000;2022-07-26T03:58:39;13.77;;;6.18;;
54197;SDS011;40105;52.366;17.000;2022-07-26T04:01:04;11.40;;;6.32;;
54197;SDS011;40105;52.366;17.000;2022-07-26T04:03:29;11.93;;;6.43;;
54197;SDS011;40105;52.366;17.000;2022-07-26T04:05:55;10.90;;;6.67;;
54197;SDS011;40105;52.366;17.000;2022-07-26T04:08:20;17.20;;;7.37;;
54197;SDS011;40105;52.366;17.000;2022-07-26T04:10:48;12.47;;;7.17;;
54197;SDS011;40105;52.366;17.000;2022-07-26T04:13:17;12.48;;;6.72;;
54197;SDS011;40105;52.366;17.000;2022-07-26T04:15:42;10.40;;;7.18;;
54197;SDS011;40105;52.366;17.000;2022-07-26T04:18:07;13.70;;;8.27;;
54197;SDS011;40105;52.366;17.000;2022-07-26T04:20:33;17.97;;;8.80;;
54197;SDS011;40105;52.366;17.000;2022-07-26T04:22:58;21.63;;;8.93;;
54197;SDS011;40105;52.366;17.000;2022-07-26T04:25:23;19.60;;;8.60;;
54197;SDS011;40105;52.366;17.000;2022-07-26T04:27:48;15.67;;;8.97;;
54197;SDS011;40105;52.366;17.000;2022-07-26T04:30:13;20.43;;;9.27;;
54197;SDS011;40105;52.366;17.000;2022-07-26T04:32:39;15.57;;;9.57;;
54197;SDS011;40105;52.366;17.000;2022-07-26T04:35:04;15.23;;;8.93;;
54197;SDS011;40105;52.366;17.000;2022-07-26T04:37:29;14.98;;;8.82;;
54197;SDS011;40105;52.366;17.000;2022-07-26T04:39:56;15.23;;;9.23;;
54197;SDS011;40105;52.366;17.000;2022-07-26T04:42:22;14.60;;;9.10;;
54197;SDS011;40105;52.366;17.000;2022-07-26T04:44:47;19.77;;;10.00;;
54197;SDS011;40105;52.366;17.000;2022-07-26T04:47:12;14.30;;;9.73;;
54197;SDS011;40105;52.366;17.000;2022-07-26T04:49:37;22.80;;;9.40;;
54197;SDS011;40105;52.366;17.000;2022-07-26T04:52:02;15.17;;;9.33;;
54197;SDS011;40105;52.366;17.000;2022-07-26T04:54:28;13.23;;;8.50;;
54197;SDS011;40105;52.366;17.000;2022-07-26T04:56:53;17.50;;;8.30;;
54197;SDS011;40105;52.366;17.000;2022-07-26T04:59:18;16.23;;;7.87;;
54197;SDS011;40105;52.366;17.000;2022-07-26T05:01:43;16.70;;;7.67;;
54197;SDS011;40105;52.366;17.000;2022-07-26T05:04:08;13.53;;;7.50;;
54197;SDS011;40105;52.366;17.000;2022-07-26T05:06:34;12.98;;;7.30;;
54197;SDS011;40105;52.366;17.000;2022-07-26T05:08:59;13.60;;;6.90;;
54197;SDS011;40105;52.366;17.000;2022-07-26T05:11:24;14.00;;;6.17;;
54197;SDS011;40105;52.366;17.000;2022-07-26T05:13:50;10.63;;;5.93;;
54197;SDS011;40105;52.366;17.000;2022-07-26T05:16:15;10.20;;;5.57;;
54197;SDS011;40105;52.366;17.000;2022-07-26T05:18:40;12.47;;;5.67;;
54197;SDS011;40105;52.366;17.000;2022-07-26T05:21:05;9.80;;;5.40;;
54197;SDS011;40105;52.366;17.000;2022-07-26T05:23:31;11.50;;;5.33;;
54197;SDS011;40105;52.366;17.000;2022-07-26T05:25:56;11.50;;;5.33;;
54197;SDS011;40105;52.366;17.000;2022-07-26T05:28:21;9.23;;;5.93;;
54197;SDS011;40105;52.366;17.000;2022-07-26T05:30:46;13.67;;;6.37;;
54197;SDS011;40105;52.366;17.000;2022-07-26T05:33:11;9.90;;;4.83;;
54197;SDS011;40105;52.366;17.000;2022-07-26T05:35:36;9.57;;;5.70;;
54197;SDS011;40105;52.366;17.000;2022-07-26T05:38:02;7.93;;;4.90;;
54197;SDS011;40105;52.366;17.000;2022-07-26T05:40:27;10.40;;;5.07;;
54197;SDS011;40105;52.366;17.000;2022-07-26T05:42:52;9.87;;;4.97;;
54197;SDS011;40105;52.366;17.000;2022-07-26T05:45:17;7.93;;;4.50;;
54197;SDS011;40105;52.366;17.000;2022-07-26T05:47:43;10.53;;;4.07;;
54197;SDS011;40105;52.366;17.000;2022-07-26T05:50:08;5.07;;;3.77;;
54197;SDS011;40105;52.366;17.000;2022-07-26T05:52:33;9.43;;;4.05;;
54197;SDS011;40105;52.366;17.000;2022-07-26T05:54:59;8.40;;;3.57;;
54197;SDS011;40105;52.366;17.000;2022-07-26T05:57:24;7.00;;;3.73;;
54197;SDS011;40105;52.366;17.000;2022-07-26T05:59:49;7.57;;;3.57;;
54197;SDS011;40105;52.366;17.000;2022-07-26T06:02:14;12.10;;;4.23;;
54197;SDS011;40105;52.366;17.000;2022-07-26T06:04:39;9.97;;;3.60;;
54197;SDS011;40105;52.366;17.000;2022-07-26T06:07:04;8.27;;;2.93;;
54197;SDS011;40105;52.366;17.000;2022-07-26T06:09:30;4.13;;;2.93;;
54197;SDS011;40105;52.366;17.000;2022-07-26T06:11:55;6.57;;;2.80;;
54197;SDS011;40105;52.366;17.000;2022-07-26T06:14:20;6.20;;;3.10;;
54197;SDS011;40105;52.366;17.000;2022-07-26T06:16:46;9.18;;;3.00;;
54197;SDS011;40105;52.366;17.000;2022-07-26T06:19:12;7.57;;;3.45;;
54197;SDS011;40105;52.366;17.000;2022-07-26T06:21:37;7.15;;;3.22;;
54197;SDS011;40105;52.366;17.000;2022-07-26T06:24:02;6.73;;;2.63;;
54197;SDS011;40105;52.366;17.000;2022-07-26T06:26:27;8.52;;;2.85;;
54197;SDS011;40105;52.366;17.000;2022-07-26T06:28:53;4.20;;;2.50;;
54197;SDS011;40105;52.366;17.000;2022-07-26T06:31:18;9.52;;;2.72;;
54197;SDS011;40105;52.366;17.000;2022-07-26T06:33:43;6.67;;;2.97;;
54197;SDS011;40105;52.366;17.000;2022-07-26T06:36:08;5.20;;;2.50;;
54197;SDS011;40105;52.366;17.000;2022-07-26T06:38:33;3.75;;;2.60;;
54197;SDS011;40105;52.366;17.000;2022-07-26T06:40:59;6.50;;;2.80;;
54197;SDS011;40105;52.366;17.000;2022-07-26T06:43:24;6.80;;;2.70;;
54197;SDS011;40105;52.366;17.000;2022-07-26T06:45:49;11.13;;;2.97;;
54197;SDS011;40105;52.366;17.000;2022-07-26T06:48:14;9.93;;;2.43;;
54197;SDS011;40105;52.366;17.000;2022-07-26T06:50:39;6.03;;;2.37;;
54197;SDS011;40105;52.366;17.000;2022-07-26T06:53:05;8.23;;;2.30;;
54197;SDS011;40105;52.366;17.000;2022-07-26T06:55:30;4.13;;;2.00;;
54197;SDS011;40105;52.366;17.000;2022-07-26T06:57:55;6.10;;;2.13;;
54197;SDS011;40105;52.366;17.000;2022-07-26T07:00:20;5.07;;;1.93;;
54197;SDS011;40105;52.366;17.000;2022-07-26T07:02:45;6.40;;;1.87;;
54197;SDS011;40105;52.366;17.000;2022-07-26T07:05:11;5.43;;;1.80;;
54197;SDS011;40105;52.366;17.000;2022-07-26T07:07:36;4.15;;;1.95;;
54197;SDS011;40105;52.366;17.000;2022-07-26T07:10:02;6.00;;;2.30;;
54197;SDS011;40105;52.366;17.000;2022-07-26T07:12:28;9.93;;;2.65;;
54197;SDS011;40105;52.366;17.000;2022-07-26T07:14:53;8.33;;;2.33;;
54197;SDS011;40105;52.366;17.000;2022-07-26T07:17:18;4.87;;;1.70;;
54197;SDS011;40105;52.366;17.000;2022-07-26T07:19:44;3.47;;;1.80;;
54197;SDS011;40105;52.366;17.000;2022-07-26T07:22:09;4.70;;;1.83;;
54197;SDS011;40105;52.366;17.000;2022-07-26T07:24:35;5.85;;;1.70;;
54197;SDS011;40105;52.366;17.000;2022-07-26T07:27:00;5.23;;;2.37;;
54197;SDS011;40105;52.366;17.000;2022-07-26T07:29:26;10.80;;;2.13;;
54197;SDS011;40105;52.366;17.000;2022-07-26T07:31:51;10.95;;;2.05;;
54197;SDS011;40105;52.366;17.000;2022-07-26T07:34:17;5.67;;;1.90;;
54197;SDS011;40105;52.366;17.000;2022-07-26T07:36:42;4.55;;;2.05;;
54197;SDS011;40105;52.366;17.000;2022-07-26T07:39:07;5.83;;;2.50;;
54197;SDS011;40105;52.366;17.000;2022-07-26T07:41:32;8.17;;;2.57;;
54197;SDS011;40105;52.366;17.000;2022-07-26T07:43:58;12.40;;;2.28;;
54197;SDS011;40105;52.366;17.000;2022-07-26T07:46:24;7.45;;;2.90;;
54197;SDS011;40105;52.366;17.000;2022-07-26T07:48:49;7.63;;;2.90;;
54197;SDS011;40105;52.366;17.000;2022-07-26T07:51:14;5.53;;;2.73;;
54197;SDS011;40105;52.366;17.000;2022-07-26T07:53:39;11.17;;;2.43;;
54197;SDS011;40105;52.366;17.000;2022-07-26T07:56:04;17.93;;;3.00;;
54197;SDS011;40105;52.366;17.000;2022-07-26T07:58:29;5.37;;;2.40;;
54197;SDS011;40105;52.366;17.000;2022-07-26T08:00:55;6.37;;;2.23;;
54197;SDS011;40105;52.366;17.000;2022-07-26T08:03:20;6.00;;;2.13;;
54197;SDS011;40105;52.366;17.000;2022-07-26T08:05:48;11.60;;;2.67;;
54197;SDS011;40105;52.366;17.000;2022-07-26T08:08:13;3.22;;;1.98;;
54197;SDS011;40105;52.366;17.000;2022-07-26T08:10:39;7.00;;;2.40;;
54197;SDS011;40105;52.366;17.000;2022-07-26T08:13:04;2.50;;;1.38;;
54197;SDS011;40105;52.366;17.000;2022-07-26T08:15:29;7.32;;;1.67;;
54197;SDS011;40105;52.366;17.000;2022-07-26T08:17:54;8.70;;;1.80;;
54197;SDS011;40105;52.366;17.000;2022-07-26T08:20:20;7.43;;;1.87;;
54197;SDS011;40105;52.366;17.000;2022-07-26T08:22:45;4.32;;;1.70;;
54197;SDS011;40105;52.366;17.000;2022-07-26T08:25:10;5.83;;;1.87;;
54197;SDS011;40105;52.366;17.000;2022-07-26T08:27:35;3.63;;;1.52;;
54197;SDS011;40105;52.366;17.000;2022-07-26T08:30:01;9.57;;;1.97;;
54197;SDS011;40105;52.366;17.000;2022-07-26T08:32:26;2.92;;;1.33;;
54197;SDS011;40105;52.366;17.000;2022-07-26T08:34:51;11.27;;;1.67;;
54197;SDS011;40105;52.366;17.000;2022-07-26T08:37:17;7.40;;;2.03;;
54197;SDS011;40105;52.366;17.000;2022-07-26T08:39:42;4.83;;;2.03;;
54197;SDS011;40105;52.366;17.000;2022-07-26T08:42:14;11.40;;;2.10;;
54197;SDS011;40105;52.366;17.000;2022-07-26T08:44:40;6.28;;;2.17;;
54197;SDS011;40105;52.366;17.000;2022-07-26T08:47:05;6.93;;;2.28;;
54197;SDS011;40105;52.366;17.000;2022-07-26T08:49:31;6.27;;;1.80;;
54197;SDS011;40105;52.366;17.000;2022-07-26T08:51:56;10.43;;;1.93;;
54197;SDS011;40105;52.366;17.000;2022-07-26T08:54:23;7.05;;;1.92;;
54197;SDS011;40105;52.366;17.000;2022-07-26T08:56:51;4.15;;;1.50;;
54197;SDS011;40105;52.366;17.000;2022-07-26T08:59:17;4.65;;;1.50;;
54197;SDS011;40105;52.366;17.000;2022-07-26T09:01:49;5.03;;;1.77;;
54197;SDS011;40105;52.366;17.000;2022-07-26T09:04:18;11.55;;;1.63;;
54197;SDS011;40105;52.366;17.000;2022-07-26T09:09:22;6.50;;;2.03;;
54197;SDS011;40105;52.366;17.000;2022-07-26T09:11:47;12.40;;;2.00;;
54197;SDS011;40105;52.366;17.000;2022-07-26T09:14:12;7.23;;;1.80;;
54197;SDS011;40105;52.366;17.000;2022-07-26T09:16:37;4.63;;;2.00;;
54197;SDS011;40105;52.366;17.000;2022-07-26T09:19:17;8.63;;;1.90;;
54197;SDS011;40105;52.366;17.000;2022-07-26T09:21:43;6.53;;;2.08;;
54197;SDS011;40105;52.366;17.000;2022-07-26T09:24:08;5.70;;;2.28;;
54197;SDS011;40105;52.366;17.000;2022-07-26T09:26:34;9.57;;;2.20;;
54197;SDS011;40105;52.366;17.000;2022-07-26T09:31:27;4.28;;;1.98;;
54197;SDS011;40105;52.366;17.000;2022-07-26T09:33:52;7.33;;;1.90;;
54197;SDS011;40105;52.366;17.000;2022-07-26T09:36:18;4.20;;;1.50;;
54197;SDS011;40105;52.366;17.000;2022-07-26T09:38:44;4.15;;;1.50;;
54197;SDS011;40105;52.366;17.000;2022-07-26T09:41:23;6.07;;;2.00;;
54197;SDS011;40105;52.366;17.000;2022-07-26T09:43:50;19.02;;;1.80;;
54197;SDS011;40105;52.366;17.000;2022-07-26T09:46:16;6.00;;;1.70;;
54197;SDS011;40105;52.366;17.000;2022-07-26T09:48:42;10.15;;;3.03;;
54197;SDS011;40105;52.366;17.000;2022-07-26T09:51:08;7.18;;;1.67;;
54197;SDS011;40105;52.366;17.000;2022-07-26T09:53:44;4.40;;;1.70;;
54197;SDS011;40105;52.366;17.000;2022-07-26T09:56:09;4.20;;;1.73;;
54197;SDS011;40105;52.366;17.000;2022-07-26T09:58:35;4.63;;;1.87;;
54197;SDS011;40105;52.366;17.000;2022-07-26T10:01:00;6.95;;;1.63;;
54197;SDS011;40105;52.366;17.000;2022-07-26T10:03:25;4.53;;;1.80;;
54197;SDS011;40105;52.366;17.000;2022-07-26T10:05:50;5.50;;;1.60;;
54197;SDS011;40105;52.366;17.000;2022-07-26T10:08:16;3.75;;;1.40;;
54197;SDS011;40105;52.366;17.000;2022-07-26T10:10:44;8.60;;;1.40;;
54197;SDS011;40105;52.366;17.000;2022-07-26T10:13:10;4.95;;;1.65;;
54197;SDS011;40105;52.366;17.000;2022-07-26T10:15:36;6.17;;;1.63;;
54197;SDS011;40105;52.366;17.000;2022-07-26T10:18:03;3.63;;;1.20;;
54197;SDS011;40105;52.366;17.000;2022-07-26T10:23:36;2.33;;;1.00;;
54197;SDS011;40105;52.366;17.000;2022-07-26T10:26:02;3.75;;;1.60;;
54197;SDS011;40105;52.366;17.000;2022-07-26T10:28:28;5.82;;;1.38;;
54197;SDS011;40105;52.366;17.000;2022-07-26T10:33:53;2.67;;;1.15;;
54197;SDS011;40105;52.366;17.000;2022-07-26T10:38:57;4.45;;;1.30;;
54197;SDS011;40105;52.366;17.000;2022-07-26T10:41:32;4.28;;;1.42;;
54197;SDS011;40105;52.366;17.000;2022-07-26T10:44:31;10.63;;;1.45;;
54197;SDS011;40105;52.366;17.000;2022-07-26T10:49:16;7.78;;;1.40;;
54197;SDS011;40105;52.366;17.000;2022-07-26T10:51:42;1.52;;;1.00;;
54197;SDS011;40105;52.366;17.000;2022-07-26T10:54:08;4.20;;;1.40;;
54197;SDS011;40105;52.366;17.000;2022-07-26T10:56:33;5.30;;;1.30;;
54197;SDS011;40105;52.366;17.000;2022-07-26T10:58:58;4.13;;;1.17;;
54197;SDS011;40105;52.366;17.000;2022-07-26T11:03:58;3.75;;;1.33;;
54197;SDS011;40105;52.366;17.000;2022-07-26T11:06:25;1.73;;;1.10;;
54197;SDS011;40105;52.366;17.000;2022-07-26T11:08:50;4.13;;;1.27;;
54197;SDS011;40105;52.366;17.000;2022-07-26T11:11:26;5.38;;;1.55;;
54197;SDS011;40105;52.366;17.000;2022-07-26T11:13:51;3.58;;;1.30;;
54197;SDS011;40105;52.366;17.000;2022-07-26T11:16:27;3.53;;;1.50;;
54197;SDS011;40105;52.366;17.000;2022-07-26T11:18:52;2.90;;;1.23;;
54197;SDS011;40105;52.366;17.000;2022-07-26T11:21:17;6.87;;;2.00;;
54197;SDS011;40105;52.366;17.000;2022-07-26T11:23:46;5.13;;;1.43;;
54197;SDS011;40105;52.366;17.000;2022-07-26T11:26:18;2.17;;;1.40;;
54197;SDS011;40105;52.366;17.000;2022-07-26T11:28:51;3.55;;;1.70;;
54197;SDS011;40105;52.366;17.000;2022-07-26T11:31:17;3.80;;;1.33;;
54197;SDS011;40105;52.366;17.000;2022-07-26T11:33:44;3.80;;;1.23;;
54197;SDS011;40105;52.366;17.000;2022-07-26T11:36:09;3.20;;;1.40;;
54197;SDS011;40105;52.366;17.000;2022-07-26T11:41:13;5.68;;;1.67;;
54197;SDS011;40105;52.366;17.000;2022-07-26T11:43:39;2.38;;;1.23;;
54197;SDS011;40105;52.366;17.000;2022-07-26T11:46:05;1.70;;;1.20;;
54197;SDS011;40105;52.366;17.000;2022-07-26T11:48:30;4.30;;;1.38;;
54197;SDS011;40105;52.366;17.000;2022-07-26T11:53:52;2.28;;;1.02;;
54197;SDS011;40105;52.366;17.000;2022-07-26T11:56:23;4.32;;;1.27;;
54197;SDS011;40105;52.366;17.000;2022-07-26T11:58:49;3.38;;;1.23;;
54197;SDS011;40105;52.366;17.000;2022-07-26T12:01:16;2.67;;;1.17;;
54197;SDS011;40105;52.366;17.000;2022-07-26T12:03:42;3.35;;;1.25;;
54197;SDS011;40105;52.366;17.000;2022-07-26T12:06:12;2.22;;;0.80;;
54197;SDS011;40105;52.366;17.000;2022-07-26T12:08:56;3.17;;;1.10;;
54197;SDS011;40105;52.366;17.000;2022-07-26T12:11:22;2.25;;;0.70;;
54197;SDS011;40105;52.366;17.000;2022-07-26T12:13:49;2.08;;;0.90;;
54197;SDS011;40105;52.366;17.000;2022-07-26T12:18:58;4.82;;;0.85;;
54197;SDS011;40105;52.366;17.000;2022-07-26T12:21:35;1.63;;;0.77;;
54197;SDS011;40105;52.366;17.000;2022-07-26T12:24:01;2.80;;;1.10;;
54197;SDS011;40105;52.366;17.000;2022-07-26T12:26:27;4.07;;;0.80;;
54197;SDS011;40105;52.366;17.000;2022-07-26T12:28:53;2.00;;;0.95;;
54197;SDS011;40105;52.366;17.000;2022-07-26T12:31:25;3.65;;;0.98;;
54197;SDS011;40105;52.366;17.000;2022-07-26T12:33:51;1.77;;;0.80;;
54197;SDS011;40105;52.366;17.000;2022-07-26T12:36:19;4.90;;;0.93;;
54197;SDS011;40105;52.366;17.000;2022-07-26T12:38:45;2.05;;;0.90;;
54197;SDS011;40105;52.366;17.000;2022-07-26T12:41:10;2.03;;;0.90;;
54197;SDS011;40105;52.366;17.000;2022-07-26T12:43:39;1.53;;;0.90;;
54197;SDS011;40105;52.366;17.000;2022-07-26T12:46:04;1.80;;;0.90;;
54197;SDS011;40105;52.366;17.000;2022-07-26T12:48:29;1.50;;;0.80;;
54197;SDS011;40105;52.366;17.000;2022-07-26T12:50:55;3.77;;;0.93;;
54197;SDS011;40105;52.366;17.000;2022-07-26T12:53:21;2.58;;;1.00;;
54197;SDS011;40105;52.366;17.000;2022-07-26T12:55:46;2.60;;;0.73;;
54197;SDS011;40105;52.366;17.000;2022-07-26T12:58:11;1.57;;;0.80;;
54197;SDS011;40105;52.366;17.000;2022-07-26T13:00:36;3.33;;;0.90;;
54197;SDS011;40105;52.366;17.000;2022-07-26T13:03:01;10.03;;;1.03;;
54197;SDS011;40105;52.366;17.000;2022-07-26T13:05:27;8.00;;;1.00;;
54197;SDS011;40105;52.366;17.000;2022-07-26T13:07:52;2.28;;;0.90;;
54197;SDS011;40105;52.366;17.000;2022-07-26T13:10:18;3.03;;;0.80;;
54197;SDS011;40105;52.366;17.000;2022-07-26T13:12:43;4.00;;;1.03;;
54197;SDS011;40105;52.366;17.000;2022-07-26T13:15:08;4.07;;;1.13;;
54197;SDS011;40105;52.366;17.000;2022-07-26T13:17:33;1.30;;;0.90;;
54197;SDS011;40105;52.366;17.000;2022-07-26T13:19:59;2.57;;;0.73;;
54197;SDS011;40105;52.366;17.000;2022-07-26T13:22:24;5.93;;;0.97;;
54197;SDS011;40105;52.366;17.000;2022-07-26T13:24:49;1.02;;;0.70;;
54197;SDS011;40105;52.366;17.000;2022-07-26T13:27:14;1.20;;;0.73;;
54197;SDS011;40105;52.366;17.000;2022-07-26T13:29:40;5.27;;;1.07;;
54197;SDS011;40105;52.366;17.000;2022-07-26T13:32:05;5.53;;;0.63;;
54197;SDS011;40105;52.366;17.000;2022-07-26T13:34:30;7.53;;;1.23;;
54197;SDS011;40105;52.366;17.000;2022-07-26T13:36:56;1.50;;;0.70;;
54197;SDS011;40105;52.366;17.000;2022-07-26T13:39:21;1.73;;;0.80;;
54197;SDS011;40105;52.366;17.000;2022-07-26T13:41:46;1.17;;;0.57;;
54197;SDS011;40105;52.366;17.000;2022-07-26T13:44:11;0.67;;;0.63;;
54197;SDS011;40105;52.366;17.000;2022-07-26T13:46:37;1.60;;;0.67;;
54197;SDS011;40105;52.366;17.000;2022-07-26T13:49:03;2.20;;;0.70;;
54197;SDS011;40105;52.366;17.000;2022-07-26T13:51:29;1.25;;;0.57;;
54197;SDS011;40105;52.366;17.000;2022-07-26T13:54:13;2.47;;;0.50;;
54197;SDS011;40105;52.366;17.000;2022-07-26T13:56:40;4.60;;;1.25;;
54197;SDS011;40105;52.366;17.000;2022-07-26T13:59:05;1.40;;;0.70;;
54197;SDS011;40105;52.366;17.000;2022-07-26T14:01:31;3.90;;;0.70;;
54197;SDS011;40105;52.366;17.000;2022-07-26T14:03:57;5.38;;;1.08;;
54197;SDS011;40105;52.366;17.000;2022-07-26T14:06:22;13.83;;;0.80;;
54197;SDS011;40105;52.366;17.000;2022-07-26T14:08:47;7.53;;;1.20;;
54197;SDS011;40105;52.366;17.000;2022-07-26T14:11:13;2.67;;;0.80;;
54197;SDS011;40105;52.366;17.000;2022-07-26T14:13:38;1.97;;;0.73;;
54197;SDS011;40105;52.366;17.000;2022-07-26T14:16:03;3.90;;;0.80;;
54197;SDS011;40105;52.366;17.000;2022-07-26T14:18:28;3.70;;;0.90;;
54197;SDS011;40105;52.366;17.000;2022-07-26T14:20:53;2.30;;;0.77;;
54197;SDS011;40105;52.366;17.000;2022-07-26T14:23:19;2.70;;;1.00;;
54197;SDS011;40105;52.366;17.000;2022-07-26T14:25:44;5.37;;;1.10;;
54197;SDS011;40105;52.366;17.000;2022-07-26T14:28:09;4.03;;;1.03;;
54197;SDS011;40105;52.366;17.000;2022-07-26T14:30:34;4.77;;;1.50;;
54197;SDS011;40105;52.366;17.000;2022-07-26T14:32:59;1.53;;;0.90;;
54197;SDS011;40105;52.366;17.000;2022-07-26T14:35:25;2.23;;;0.87;;
54197;SDS011;40105;52.366;17.000;2022-07-26T14:37:50;0.90;;;0.57;;
54197;SDS011;40105;52.366;17.000;2022-07-26T14:40:15;5.10;;;1.30;;
54197;SDS011;40105;52.366;17.000;2022-07-26T14:42:41;1.50;;;0.90;;
54197;SDS011;40105;52.366;17.000;2022-07-26T14:45:07;3.17;;;1.33;;
54197;SDS011;40105;52.366;17.000;2022-07-26T14:47:33;4.25;;;0.88;;
54197;SDS011;40105;52.366;17.000;2022-07-26T14:49:58;2.35;;;1.00;;